createdAt,value
2019-03-21T00:00:49.642Z,24.40
2019-03-21T00:03:30.319Z,29.30
2019-03-21T00:06:29.977Z,29.07
2019-03-21T00:09:36.351Z,26.83
2019-03-21T00:12:10.885Z,30.50
2019-03-21T00:15:06.597Z,26.57
2019-03-21T00:18:28.973Z,30.37
2019-03-21T00:21:05.388Z,33.37
2019-03-21T00:23:48.588Z,30.27
2019-03-21T00:26:40.854Z,31.33
2019-03-21T00:29:11.372Z,33.63
2019-03-21T00:31:40.568Z,31.90
2019-03-21T00:34:17.489Z,32.87
2019-03-21T00:36:46.429Z,31.37
2019-03-21T00:39:32.397Z,32.20
2019-03-21T00:41:55.831Z,30.67
2019-03-21T00:44:25.017Z,33.33
2019-03-21T00:47:10.650Z,30.67
2019-03-21T00:49:41.885Z,32.87
2019-03-21T00:52:12.137Z,30.63
2019-03-21T00:54:47.008Z,30.70
2019-03-21T00:57:16.719Z,30.50
2019-03-21T00:59:56.143Z,29.87
2019-03-21T01:02:24.563Z,26.80
2019-03-21T01:04:53.079Z,26.83
2019-03-21T01:07:30.830Z,25.50
2019-03-21T01:10:10.984Z,23.63
2019-03-21T01:12:47.784Z,23.77
2019-03-21T01:15:21.792Z,27.60
2019-03-21T01:17:54.931Z,21.67
2019-03-21T01:20:34.969Z,24.50
2019-03-21T01:23:07.314Z,21.60
2019-03-21T01:25:42.440Z,22.93
2019-03-21T01:28:11.122Z,20.67
2019-03-21T01:30:43.969Z,19.93
2019-03-21T01:33:28.344Z,21.70
2019-03-21T01:35:58.579Z,21.13
2019-03-21T01:38:29.909Z,22.77
2019-03-21T01:41:18.649Z,22.77
2019-03-21T01:43:51.714Z,20.83
2019-03-21T01:46:24.912Z,22.30
2019-03-21T01:49:09.593Z,22.67
2019-03-21T01:51:42.198Z,22.90
2019-03-21T01:54:22.366Z,20.63
2019-03-21T01:56:52.643Z,21.13
2019-03-21T02:00:19.603Z,20.00
2019-03-21T02:03:33.316Z,24.57
2019-03-21T02:07:08.455Z,21.30
2019-03-21T02:13:41.885Z,20.17
2019-03-21T02:16:48.090Z,20.23
2019-03-21T02:19:21.844Z,23.53
2019-03-21T02:21:50.184Z,20.97
2019-03-21T02:24:18.683Z,23.57
2019-03-21T02:26:52.321Z,20.30
2019-03-21T02:29:28.430Z,22.67
2019-03-21T02:32:06.020Z,22.17
2019-03-21T02:34:34.690Z,21.30
2019-03-21T02:37:03.078Z,21.47
2019-03-21T02:39:33.594Z,23.83
2019-03-21T02:42:05.070Z,22.17
2019-03-21T02:44:36.411Z,22.70
2019-03-21T02:47:04.725Z,22.80
2019-03-21T02:49:32.826Z,20.60
2019-03-21T02:52:01.114Z,27.37
2019-03-21T02:54:29.239Z,23.30
2019-03-21T02:56:57.489Z,22.73
2019-03-21T02:59:25.694Z,24.93
2019-03-21T03:01:53.833Z,27.37
2019-03-21T03:04:21.982Z,24.47
2019-03-21T03:06:50.279Z,25.93
2019-03-21T03:09:18.370Z,24.97
2019-03-21T03:11:46.593Z,24.47
2019-03-21T03:14:14.881Z,24.37
2019-03-21T03:16:43.138Z,26.67
2019-03-21T03:19:11.269Z,27.20
2019-03-21T03:21:39.244Z,29.97
2019-03-21T03:24:08.013Z,27.87
2019-03-21T03:26:36.019Z,26.07
2019-03-21T03:29:03.944Z,29.53
2019-03-21T03:31:32.150Z,25.43
2019-03-21T03:34:00.117Z,25.60
2019-03-21T03:36:28.655Z,29.20
2019-03-21T03:38:56.679Z,25.23
2019-03-21T03:41:24.626Z,22.20
2019-03-21T03:43:52.738Z,29.03
2019-03-21T03:46:20.680Z,24.90
2019-03-21T03:48:48.700Z,25.30
2019-03-21T03:51:16.669Z,29.40
2019-03-21T03:53:44.788Z,24.13
2019-03-21T03:56:12.936Z,23.07
2019-03-21T03:58:42.449Z,23.00
2019-03-21T04:01:10.396Z,25.40
2019-03-21T04:03:38.505Z,22.00
2019-03-21T04:06:06.531Z,24.27
2019-03-21T04:08:34.541Z,25.40
2019-03-21T04:11:02.591Z,23.53
2019-03-21T04:13:30.645Z,27.07
2019-03-21T04:15:58.694Z,24.63
2019-03-21T04:18:27.749Z,24.83
2019-03-21T04:20:56.513Z,25.47
2019-03-21T04:23:24.509Z,22.20
2019-03-21T04:25:55.877Z,22.93
2019-03-21T04:28:23.864Z,23.93
2019-03-21T04:30:51.803Z,24.57
2019-03-21T04:33:22.472Z,24.37
2019-03-21T04:35:49.624Z,25.23
2019-03-21T04:38:17.624Z,25.70
2019-03-21T04:40:45.589Z,30.17
2019-03-21T04:43:13.659Z,25.77
2019-03-21T04:45:42.140Z,26.50
2019-03-21T04:48:10.664Z,28.33
2019-03-21T04:50:39.864Z,22.87
2019-03-21T04:53:11.145Z,29.00
2019-03-21T04:55:39.139Z,30.80
2019-03-21T04:58:07.219Z,28.10
2019-03-21T05:00:35.739Z,30.83
2019-03-21T05:03:04.794Z,32.83
2019-03-21T05:05:32.865Z,28.80
2019-03-21T05:08:02.550Z,30.07
2019-03-21T05:10:30.464Z,29.07
2019-03-21T05:12:59.019Z,30.77
2019-03-21T05:15:29.189Z,29.33
2019-03-21T05:17:59.879Z,30.23
2019-03-21T05:20:29.861Z,30.60
2019-03-21T05:22:58.158Z,32.67
2019-03-21T05:25:26.319Z,32.53
2019-03-21T05:27:54.323Z,34.23
2019-03-21T05:30:26.129Z,32.40
2019-03-21T05:32:54.099Z,36.83
2019-03-21T05:35:22.105Z,30.00
2019-03-21T05:37:50.120Z,33.40
2019-03-21T05:40:18.080Z,34.20
2019-03-21T05:42:50.144Z,33.23
2019-03-21T05:45:18.214Z,33.80
2019-03-21T05:47:46.200Z,39.53
2019-03-21T05:50:15.153Z,30.60
2019-03-21T05:52:43.224Z,33.73
2019-03-21T05:58:30.794Z,37.63
2019-03-21T06:01:01.590Z,33.80
2019-03-21T06:03:33.993Z,34.57
2019-03-21T06:06:18.560Z,36.63
2019-03-21T06:08:46.794Z,34.40
2019-03-21T06:11:47.015Z,33.97
2019-03-21T06:14:26.873Z,34.47
2019-03-21T06:16:59.713Z,42.07
2019-03-21T06:19:56.217Z,41.87
2019-03-21T06:23:22.553Z,39.77
2019-03-21T06:26:39.374Z,36.07
2019-03-21T06:37:13.163Z,38.50
2019-03-21T06:40:10.347Z,37.90
2019-03-21T06:43:12.014Z,40.77
2019-03-21T06:45:58.059Z,38.60
2019-03-21T06:48:29.178Z,40.77
2019-03-21T06:52:09.784Z,36.20
2019-03-21T07:05:19.094Z,38.17
2019-03-21T07:11:21.257Z,34.90
2019-03-21T07:13:38.507Z,34.10
2019-03-21T07:16:09.284Z,31.73
2019-03-21T07:19:23.938Z,34.80
2019-03-21T07:22:43.171Z,31.03
2019-03-21T07:25:26.279Z,27.47
2019-03-21T07:28:55.297Z,32.30
2019-03-21T07:31:23.425Z,30.83
2019-03-21T07:33:51.421Z,31.20
2019-03-21T07:36:19.395Z,28.23
2019-03-21T07:39:23.758Z,26.23
2019-03-21T07:43:04.995Z,28.80
2019-03-21T07:45:32.994Z,30.23
2019-03-21T07:48:00.930Z,29.30
2019-03-21T07:50:49.660Z,29.67
2019-03-21T07:53:42.056Z,30.20
2019-03-21T08:00:31.974Z,27.33
2019-03-21T08:03:00.227Z,29.13
2019-03-21T08:05:39.720Z,37.17
2019-03-21T08:08:00.583Z,32.70
2019-03-21T08:10:28.720Z,32.53
2019-03-21T08:12:56.705Z,33.87
2019-03-21T08:15:26.135Z,31.60
2019-03-21T08:17:54.249Z,32.87
2019-03-21T08:21:03.585Z,36.87
2019-03-21T08:27:16.304Z,26.63
2019-03-21T08:29:44.830Z,30.83
2019-03-21T08:32:18.103Z,31.80
2019-03-21T08:34:58.844Z,27.03
2019-03-21T08:37:27.154Z,33.60
2019-03-21T08:39:55.275Z,28.83
2019-03-21T08:42:23.279Z,31.73
2019-03-21T08:44:51.555Z,27.50
2019-03-21T08:55:25.453Z,27.40
2019-03-21T09:15:43.873Z,30.83
2019-03-21T09:18:14.309Z,26.17
2019-03-21T09:24:24.586Z,27.63
2019-03-21T09:27:14.403Z,28.97
2019-03-21T09:37:58.238Z,29.67
2019-03-21T09:41:50.943Z,29.03
2019-03-21T09:52:47.477Z,25.40
2019-03-21T09:58:37.409Z,24.47
2019-03-21T10:01:23.903Z,25.73
2019-03-21T10:03:52.059Z,25.00
2019-03-21T10:06:32.631Z,25.57
2019-03-21T10:20:14.488Z,20.60
2019-03-21T10:32:21.618Z,23.47
2019-03-21T10:35:24.660Z,27.00
2019-03-21T10:39:11.018Z,26.47
2019-03-21T10:53:38.580Z,23.27
2019-03-21T10:56:52.503Z,26.13
2019-03-21T11:07:33.815Z,27.20
2019-03-21T11:10:05.299Z,29.47
2019-03-21T11:21:04.110Z,29.17
2019-03-21T11:42:02.607Z,27.93
2019-03-21T11:44:30.577Z,24.90
2019-03-21T11:47:01.357Z,24.90
2019-03-21T11:49:31.947Z,25.30
2019-03-21T11:52:05.077Z,24.90
2019-03-21T11:54:35.889Z,25.50
2019-03-21T11:57:04.235Z,27.90
2019-03-21T11:59:51.864Z,24.10
2019-03-21T12:02:26.756Z,26.23
2019-03-21T12:04:47.436Z,24.23
2019-03-21T12:07:18.599Z,24.23
2019-03-21T12:09:46.735Z,24.20
2019-03-21T12:12:15.018Z,29.10
2019-03-21T12:14:45.777Z,25.03
2019-03-21T12:17:14.195Z,26.03
2019-03-21T12:19:42.344Z,22.47
2019-03-21T12:22:10.434Z,22.80
2019-03-21T12:24:38.635Z,23.13
2019-03-21T12:27:06.775Z,21.60
2019-03-21T12:29:45.776Z,23.37
2019-03-21T12:35:50.997Z,23.00
2019-03-21T12:38:24.214Z,21.83
2019-03-21T12:41:17.075Z,25.80
2019-03-21T12:44:14.174Z,24.00
2019-03-21T12:47:02.293Z,24.60
2019-03-21T12:49:30.813Z,21.87
2019-03-21T12:52:01.572Z,23.13
2019-03-21T12:54:29.635Z,23.60
2019-03-21T12:56:57.892Z,23.10
2019-03-21T12:59:26.241Z,20.50
2019-03-21T13:01:55.212Z,21.70
2019-03-21T13:04:25.912Z,22.83
2019-03-21T13:06:58.714Z,20.73
2019-03-21T13:09:32.770Z,22.57
2019-03-21T13:12:03.672Z,18.77
2019-03-21T13:14:35.846Z,21.37
2019-03-21T13:17:09.252Z,26.50
2019-03-21T13:19:38.812Z,26.03
2019-03-21T13:22:09.689Z,23.83
2019-03-21T13:25:20.602Z,23.67
2019-03-21T13:28:01.712Z,26.13
2019-03-21T13:30:36.194Z,28.23
2019-03-21T13:33:27.706Z,20.70
2019-03-21T13:36:15.031Z,23.23
2019-03-21T13:38:43.351Z,25.07
2019-03-21T13:41:11.392Z,25.07
2019-03-21T13:43:39.472Z,23.77
2019-03-21T13:46:07.525Z,25.17
2019-03-21T13:48:35.687Z,20.13
2019-03-21T13:51:03.872Z,19.00
2019-03-21T13:53:35.597Z,25.87
2019-03-21T14:03:30.431Z,18.33
2019-03-21T14:06:04.856Z,17.13
2019-03-21T14:08:58.990Z,17.47
2019-03-21T14:11:47.931Z,22.00
2019-03-21T14:14:16.213Z,20.93
2019-03-21T14:16:44.232Z,22.40
2019-03-21T14:19:12.391Z,19.13
2019-03-21T14:43:24.611Z,21.50
2019-03-21T14:45:52.752Z,19.57
2019-03-21T14:48:20.913Z,21.27
2019-03-21T14:50:49.372Z,23.03
2019-03-21T14:53:28.824Z,22.80
2019-03-21T14:55:51.373Z,22.23
2019-03-21T14:58:21.314Z,22.87
2019-03-21T15:00:49.661Z,19.73
2019-03-21T15:03:28.513Z,19.97
2019-03-21T15:05:58.175Z,18.27
2019-03-21T15:08:26.515Z,20.23
2019-03-21T15:10:54.654Z,22.77
2019-03-21T15:13:31.411Z,22.57
2019-03-21T15:16:10.972Z,21.97
2019-03-21T15:19:20.990Z,21.87
2019-03-21T15:22:07.026Z,23.03
2019-03-21T15:28:22.651Z,19.73
2019-03-21T15:32:53.452Z,21.80
2019-03-21T15:35:07.390Z,21.53
2019-03-21T15:38:02.607Z,23.50
2019-03-21T15:40:32.333Z,22.80
2019-03-21T15:43:02.352Z,21.17
2019-03-21T15:45:30.732Z,20.73
2019-03-21T15:47:58.828Z,21.50
2019-03-21T15:50:39.095Z,21.27
2019-03-21T15:53:32.593Z,21.63
2019-03-21T15:56:04.583Z,25.07
2019-03-21T15:58:33.093Z,21.93
2019-03-21T16:01:38.892Z,23.47
2019-03-21T16:05:15.645Z,24.23
2019-03-21T16:15:07.595Z,25.50
2019-03-21T16:21:37.953Z,21.43
2019-03-21T16:28:45.903Z,18.77
2019-03-21T16:45:45.008Z,22.07
2019-03-21T16:59:24.012Z,29.50
2019-03-21T17:01:52.221Z,25.87
2019-03-21T17:04:20.508Z,25.33
2019-03-21T17:06:48.683Z,23.70
2019-03-21T17:17:05.305Z,24.20
2019-03-21T17:37:49.063Z,21.70
2019-03-21T17:40:18.635Z,27.03
2019-03-21T17:43:34.861Z,24.27
2019-03-21T17:46:54.239Z,27.27
2019-03-21T17:49:48.460Z,24.67
2019-03-21T17:52:23.035Z,24.50
2019-03-21T17:54:54.405Z,24.97
2019-03-21T17:59:20.247Z,24.67
2019-03-21T18:01:18.663Z,24.07
2019-03-21T18:07:08.561Z,29.00
2019-03-21T18:17:32.025Z,28.23
2019-03-21T18:20:56.533Z,21.23
2019-03-21T18:23:26.746Z,20.97
2019-03-21T18:25:55.163Z,24.03
2019-03-21T18:28:45.532Z,22.47
2019-03-21T18:31:19.195Z,23.93
2019-03-21T18:33:52.360Z,29.07
2019-03-21T18:36:36.825Z,34.23
2019-03-21T18:41:33.475Z,28.67
2019-03-21T18:46:45.368Z,29.07
2019-03-21T18:50:09.234Z,26.60
2019-03-21T18:52:41.042Z,29.23
2019-03-21T18:55:20.791Z,29.73
2019-03-21T18:58:17.492Z,32.80
2019-03-21T19:01:06.187Z,32.53
2019-03-21T19:04:05.016Z,35.80
2019-03-21T19:06:51.790Z,61.03
2019-03-21T19:09:44.134Z,70.30
2019-03-21T19:12:12.989Z,64.93
2019-03-21T19:14:41.553Z,57.70
2019-03-21T19:17:20.631Z,51.23
2019-03-21T19:19:49.432Z,41.03
2019-03-21T19:22:26.776Z,41.20
2019-03-21T19:25:17.486Z,31.90
2019-03-21T19:27:36.975Z,28.43
2019-03-21T19:30:22.350Z,33.20
2019-03-21T19:32:51.082Z,27.87
2019-03-21T19:35:23.289Z,31.10
2019-03-21T19:37:51.852Z,31.27
2019-03-21T19:41:10.860Z,32.50
2019-03-21T19:43:39.950Z,29.73
2019-03-21T19:46:08.442Z,25.93
2019-03-21T19:48:49.847Z,29.53
2019-03-21T19:51:09.971Z,28.70
2019-03-21T19:53:42.031Z,32.60
2019-03-21T19:56:11.722Z,29.67
2019-03-21T19:58:43.385Z,30.17
2019-03-21T20:01:12.500Z,29.53
2019-03-21T20:03:41.822Z,32.43
2019-03-21T20:06:11.055Z,31.63
2019-03-21T20:08:41.440Z,29.67
2019-03-21T20:11:17.547Z,33.37
2019-03-21T20:13:54.020Z,34.93
2019-03-21T20:16:41.094Z,30.10
2019-03-21T20:19:21.891Z,33.90
2019-03-21T20:22:07.191Z,37.00
2019-03-21T20:24:58.099Z,32.90
2019-03-21T20:28:07.480Z,33.93
2019-03-21T20:31:14.100Z,33.33
2019-03-21T20:34:20.585Z,31.23
2019-03-21T20:37:28.219Z,36.80
2019-03-21T20:41:06.477Z,36.43
2019-03-21T20:43:06.677Z,35.70
2019-03-21T20:45:37.188Z,33.00
2019-03-21T20:48:05.991Z,32.50
2019-03-21T20:50:34.351Z,32.77
2019-03-21T20:53:03.086Z,34.67
2019-03-21T20:55:31.767Z,38.90
2019-03-21T20:58:00.311Z,37.57
2019-03-21T21:00:29.181Z,36.63
2019-03-21T21:02:57.591Z,36.33
2019-03-21T21:05:44.895Z,35.17
2019-03-21T21:08:13.690Z,38.87
2019-03-21T21:10:42.109Z,37.20
2019-03-21T21:13:13.336Z,37.47
2019-03-21T21:15:59.050Z,38.73
2019-03-21T21:18:27.941Z,41.40
2019-03-21T21:21:21.446Z,45.27
2019-03-21T21:23:52.566Z,44.00
2019-03-21T21:26:42.801Z,40.77
2019-03-21T21:29:12.563Z,34.40
2019-03-21T21:31:46.174Z,35.17
2019-03-21T21:37:55.931Z,39.43
2019-03-21T21:41:23.725Z,39.67
2019-03-21T21:43:51.852Z,47.57
2019-03-21T21:46:20.216Z,45.90
2019-03-21T21:48:57.546Z,47.33
2019-03-21T21:51:25.626Z,44.10
2019-03-21T21:53:53.816Z,42.77
2019-03-21T21:56:21.906Z,44.53
2019-03-21T21:58:50.907Z,41.50
2019-03-21T22:01:18.901Z,45.10
2019-03-21T22:03:46.881Z,47.07
2019-03-21T22:06:17.926Z,43.13
2019-03-21T22:08:45.844Z,43.40
2019-03-21T22:11:13.856Z,42.73
2019-03-21T22:13:43.636Z,42.90
2019-03-21T22:16:11.631Z,41.97
2019-03-21T22:18:39.571Z,44.50
2019-03-21T22:21:07.566Z,39.20
2019-03-21T22:23:36.532Z,47.03
2019-03-21T22:46:23.299Z,49.53
2019-03-21T22:49:59.508Z,49.07
2019-03-21T22:51:45.200Z,44.43
2019-03-21T22:54:35.319Z,49.87
2019-03-21T22:57:06.645Z,48.33
2019-03-21T22:59:36.676Z,48.83
2019-03-21T23:17:01.343Z,58.27
2019-03-21T23:20:01.255Z,53.57
2019-03-21T23:26:20.181Z,54.23
2019-03-21T23:43:04.700Z,59.23
2019-03-21T23:45:46.190Z,60.20
2019-03-21T23:49:39.391Z,54.80
2019-03-21T23:57:14.140Z,64.37
